Time;durP1;ratioP1;P1;durP2;ratioP2;P2;SDS_P1;SDS_P2;PMS_P1;PMS_P2;Temp;Humidity;BMP_temperature;BMP_pressure;BME280_temperature;BME280_humidity;BME280_pressure;Samples;Min_cycle;Max_cycle;Signal;HPM_P1;HPM_P2
2021/12/10 00:00:45;;;;;;;14.20;8.68;;;;;;;3.76;67.96;98431.16;10382138;28;20522;-74
2021/12/10 00:05:55;;;;;;;16.25;10.82;;;;;;;3.78;67.95;98425.91;10385364;28;20056;-74
2021/12/10 00:11:01;;;;;;;19.30;13.75;;;;;;;3.81;68.20;98410.22;10385696;28;20460;-73
2021/12/10 00:16:03;;;;;;;19.20;11.95;;;;;;;3.83;67.66;98398.03;10388105;28;20066;-74
2021/12/10 00:21:05;;;;;;;20.35;13.05;;;;;;;3.76;68.16;98386.38;10388605;28;20045;-74
2021/12/10 00:26:07;;;;;;;15.45;10.82;;;;;;;3.90;67.92;98383.88;10389735;28;20057;-74
2021/12/10 00:36:38;;;;;;;18.48;10.60;;;;;;;3.97;67.76;98366.22;10385391;28;20049;-72
2021/12/10 00:41:41;;;;;;;14.52;7.80;;;;;;;3.95;67.57;98355.97;10395956;28;20079;-74
2021/12/10 00:46:43;;;;;;;12.10;7.07;;;;;;;3.84;67.56;98350.63;10386610;28;20056;-73
2021/12/10 00:51:46;;;;;;;12.13;5.45;;;;;;;3.84;67.64;98353.19;10388616;28;20060;-72
2021/12/10 00:56:48;;;;;;;10.05;5.25;;;;;;;3.70;67.55;98343.59;10383881;28;20513;-73
2021/12/10 01:01:51;;;;;;;8.80;4.32;;;;;;;3.57;67.55;98342.63;10387111;28;20045;-73
2021/12/10 01:06:57;;;;;;;18.15;6.53;;;;;;;3.56;67.64;98335.78;10387364;28;20055;-73
2021/12/10 01:12:04;;;;;;;20.70;9.50;;;;;;;3.58;67.61;98322.78;10384265;28;20045;-73
2021/12/10 01:27:47;;;;;;;12.63;5.38;;;;;;;3.78;66.96;98286.28;10386910;28;20240;-73
2021/12/10 01:32:54;;;;;;;15.98;6.18;;;;;;;3.86;66.87;98286.72;10385500;28;20072;-72
2021/12/10 01:37:57;;;;;;;16.02;5.22;;;;;;;3.93;66.68;98267.31;10387229;28;20394;-74
2021/12/10 01:43:06;;;;;;;11.98;4.05;;;;;;;3.96;66.31;98263.72;10383369;28;20057;-72
2021/12/10 01:48:12;;;;;;;13.77;4.60;;;;;;;3.95;66.44;98257.69;10385483;28;20065;-74
2021/12/10 01:53:17;;;;;;;9.02;4.60;;;;;;;3.85;66.43;98259.16;10385084;28;20049;-72
2021/12/10 01:58:22;;;;;;;16.10;4.55;;;;;;;3.71;66.14;98246.19;10386980;28;20469;-74
2021/12/10 02:03:24;;;;;;;11.88;3.88;;;;;;;3.62;65.95;98246.75;10386469;28;20063;-73
2021/12/10 02:08:26;;;;;;;18.33;4.40;;;;;;;3.61;65.80;98226.97;10385025;28;20420;-74
2021/12/10 02:13:28;;;;;;;20.10;6.45;;;;;;;3.49;65.76;98225.09;10382060;28;20049;-73
2021/12/10 02:18:30;;;;;;;14.82;5.43;;;;;;;3.63;65.33;98209.63;10383006;28;20079;-74
2021/12/10 02:23:44;;;;;;;16.05;5.07;;;;;;;3.69;65.40;98192.00;10382841;28;20053;-74
2021/12/10 02:28:45;;;;;;;13.23;3.65;;;;;;;3.63;64.55;98178.59;10384277;28;20414;-73
2021/12/10 02:33:47;;;;;;;9.15;3.63;;;;;;;3.61;64.84;98164.94;10384147;28;20516;-74
2021/12/10 02:38:52;;;;;;;10.90;3.28;;;;;;;3.46;64.84;98158.06;10383065;28;21056;-74
2021/12/10 02:43:54;;;;;;;12.57;3.70;;;;;;;3.40;64.67;98153.28;10383869;28;20052;-73
2021/12/10 02:48:56;;;;;;;9.45;3.40;;;;;;;3.08;64.93;98152.59;10382105;28;20050;-74
2021/12/10 02:53:59;;;;;;;16.55;4.03;;;;;;;2.98;65.57;98139.38;10381835;28;20510;-73
2021/12/10 02:59:02;;;;;;;10.38;4.45;;;;;;;3.12;66.09;98140.31;10384742;28;20041;-74
2021/12/10 03:04:07;;;;;;;18.15;6.82;;;;;;;3.24;65.72;98124.09;10387150;28;20051;-73
2021/12/10 03:09:11;;;;;;;15.80;5.65;;;;;;;3.33;65.81;98115.81;10389711;28;20060;-75
2021/12/10 03:14:14;;;;;;;12.93;4.00;;;;;;;3.31;65.44;98102.16;10389755;28;20049;-74
2021/12/10 03:19:16;;;;;;;11.60;4.85;;;;;;;3.12;66.01;98083.50;10389573;28;20132;-73
2021/12/10 03:24:22;;;;;;;15.77;4.70;;;;;;;3.04;66.28;98074.47;10388415;28;20059;-72
2021/12/10 03:29:27;;;;;;;14.02;4.93;;;;;;;3.02;66.34;98065.97;10391244;28;20070;-75
2021/12/10 03:34:29;;;;;;;15.18;4.53;;;;;;;3.00;66.34;98065.22;10390899;28;20054;-73
2021/12/10 03:39:31;;;;;;;13.35;4.97;;;;;;;2.98;66.42;98050.75;10390000;28;20071;-75
2021/12/10 03:44:36;;;;;;;13.95;4.57;;;;;;;2.80;66.49;98047.50;10389261;28;20097;-74
2021/12/10 03:49:38;;;;;;;10.73;4.90;;;;;;;2.64;66.65;98045.91;10391997;28;20243;-74
2021/12/10 03:54:41;;;;;;;14.32;4.32;;;;;;;2.49;67.06;98042.44;10391934;28;20136;-74
2021/12/10 03:59:44;;;;;;;14.77;4.25;;;;;;;2.42;67.29;98038.53;10392161;28;20528;-74
2021/12/10 04:04:50;;;;;;;16.05;4.53;;;;;;;2.29;67.42;98029.84;10388296;28;20075;-75
2021/12/10 04:09:52;;;;;;;16.00;4.10;;;;;;;2.16;67.53;98037.44;10384550;28;20059;-75
2021/12/10 04:14:54;;;;;;;16.88;5.05;;;;;;;2.18;67.83;98034.75;10382057;28;20215;-75
2021/12/10 04:19:56;;;;;;;14.20;4.32;;;;;;;2.26;67.80;98024.84;10382187;28;20053;-75
2021/12/10 04:25:05;;;;;;;20.45;4.57;;;;;;;2.37;67.49;98007.03;10382702;28;20051;-73
2021/12/10 04:30:10;;;;;;;16.58;3.50;;;;;;;2.35;67.22;97997.69;10383274;28;20060;-74
2021/12/10 04:35:13;;;;;;;12.88;3.88;;;;;;;2.34;67.44;97996.88;10381633;28;20054;-75
2021/12/10 04:40:18;;;;;;;12.90;4.88;;;;;;;2.44;67.43;97992.84;10380325;28;20052;-73
2021/12/10 04:45:20;;;;;;;18.50;5.15;;;;;;;2.51;67.38;97972.69;10381575;28;20420;-75
2021/12/10 04:50:26;;;;;;;12.60;3.55;;;;;;;2.55;66.86;97956.94;10389072;28;20042;-74
2021/12/10 04:55:28;;;;;;;11.85;3.42;;;;;;;2.43;66.53;97955.06;10390301;28;20057;-75
2021/12/10 05:00:47;;;;;;;13.10;3.70;;;;;;;2.43;66.74;97947.34;10390034;28;20397;-75
2021/12/10 05:05:49;;;;;;;12.95;3.80;;;;;;;2.46;66.53;97944.56;10389771;28;20049;-74
2021/12/10 05:10:51;;;;;;;12.43;3.80;;;;;;;2.51;66.43;97937.41;10388779;28;20489;-75
2021/12/10 05:15:58;;;;;;;12.07;3.45;;;;;;;2.49;66.27;97922.91;10388108;28;20145;-75
2021/12/10 05:20:59;;;;;;;14.07;3.05;;;;;;;2.29;66.56;97908.63;10388053;28;20084;-74
2021/12/10 05:26:02;;;;;;;11.32;3.30;;;;;;;2.11;66.86;97912.28;10387646;28;20413;-74
2021/12/10 05:31:04;;;;;;;11.60;3.30;;;;;;;2.03;66.90;97901.56;10388002;28;20494;-75
2021/12/10 05:36:07;;;;;;;15.23;3.60;;;;;;;2.00;66.99;97888.84;10388713;28;20049;-75
2021/12/10 05:41:10;;;;;;;13.93;3.20;;;;;;;1.93;67.15;97890.94;10388292;28;20494;-74
2021/12/10 05:46:12;;;;;;;16.02;3.83;;;;;;;1.92;67.27;97875.56;10388999;28;20056;-74
2021/12/10 05:51:14;;;;;;;15.07;3.85;;;;;;;1.95;67.33;97870.25;10388124;28;20049;-75
2021/12/10 05:56:17;;;;;;;10.40;4.40;;;;;;;1.97;67.41;97864.06;10388946;28;20063;-74
2021/12/10 06:01:21;;;;;;;16.33;5.68;;;;;;;1.91;67.22;97848.94;10387337;28;20075;-74
2021/12/10 06:06:27;;;;;;;21.55;6.25;;;;;;;1.95;67.27;97840.13;10388343;28;20049;-74
2021/12/10 06:11:29;;;;;;;16.17;8.30;;;;;;;1.85;67.15;97830.44;10388504;28;20061;-74
2021/12/10 06:16:31;;;;;;;17.38;9.70;;;;;;;1.76;67.48;97824.09;10386989;28;20058;-74
2021/12/10 06:21:34;;;;;;;20.27;10.10;;;;;;;1.78;67.13;97813.69;10386619;28;20053;-75
2021/12/10 06:26:36;;;;;;;17.70;8.45;;;;;;;1.65;67.23;97810.97;10386003;28;20051;-74
2021/12/10 06:31:38;;;;;;;15.10;8.60;;;;;;;1.49;67.39;97799.06;10387095;28;20232;-75
2021/12/10 06:36:44;;;;;;;12.75;6.95;;;;;;;1.33;67.51;97807.66;10386148;28;20053;-74
2021/12/10 06:41:53;;;;;;;15.15;7.57;;;;;;;1.41;67.36;97814.13;10385829;28;20729;-75
2021/12/10 06:46:55;;;;;;;13.57;7.20;;;;;;;1.48;66.81;97802.56;10384199;28;20053;-75
2021/12/10 06:51:57;;;;;;;15.57;7.28;;;;;;;1.48;66.74;97800.81;10386712;28;20053;-75
2021/12/10 06:56:59;;;;;;;11.77;7.53;;;;;;;1.29;67.01;97792.47;10386761;28;20273;-74
2021/12/10 07:02:01;;;;;;;14.68;7.60;;;;;;;1.13;67.30;97779.63;10385699;28;20391;-74
2021/12/10 07:07:03;;;;;;;13.25;7.63;;;;;;;1.07;67.16;97772.25;10375645;28;20541;-76
2021/12/10 07:12:06;;;;;;;13.90;7.80;;;;;;;1.03;66.98;97775.94;10378115;28;20067;-76
2021/12/10 07:17:07;;;;;;;17.50;8.88;;;;;;;1.06;66.84;97769.75;10380147;28;20382;-77
2021/12/10 07:22:09;;;;;;;16.77;7.35;;;;;;;1.03;66.81;97775.09;10378613;28;20049;-76
2021/12/10 07:27:12;;;;;;;17.15;6.43;;;;;;;0.99;66.93;97774.41;10380163;28;20049;-76
2021/12/10 07:32:14;;;;;;;17.73;6.82;;;;;;;0.97;66.73;97776.22;10384368;28;20053;-75
2021/12/10 07:37:16;;;;;;;15.20;7.38;;;;;;;0.96;66.90;97759.16;10381038;28;20400;-75
2021/12/10 07:42:17;;;;;;;16.52;7.70;;;;;;;1.03;66.52;97764.78;10379250;28;20600;-75
2021/12/10 07:47:20;;;;;;;16.80;8.00;;;;;;;1.03;66.88;97764.78;10379437;28;20441;-74
2021/12/10 07:52:26;;;;;;;11.98;6.85;;;;;;;1.01;66.61;97759.75;10382723;28;20045;-75
2021/12/10 07:57:29;;;;;;;16.00;8.02;;;;;;;1.05;66.78;97757.81;10380849;28;20257;-74
2021/12/10 08:02:30;;;;;;;15.02;8.13;;;;;;;1.04;66.42;97749.25;10383276;28;20476;-74
2021/12/10 08:07:32;;;;;;;18.15;7.72;;;;;;;1.03;66.94;97750.19;10381267;28;20059;-74
2021/12/10 08:12:34;;;;;;;19.67;8.13;;;;;;;1.05;66.99;97743.22;10380549;28;20148;-75
2021/12/10 08:17:36;;;;;;;16.70;8.25;;;;;;;1.07;67.07;97731.09;10379681;28;20097;-75
2021/12/10 08:22:39;;;;;;;14.32;8.48;;;;;;;1.25;66.77;97731.78;10382114;28;20065;-74
2021/12/10 08:27:41;;;;;;;15.13;8.25;;;;;;;1.46;66.64;97729.72;10384343;28;20056;-75
2021/12/10 08:32:44;;;;;;;17.90;9.45;;;;;;;1.56;66.37;97731.66;10389462;28;20252;-75
2021/12/10 08:37:46;;;;;;;15.93;6.78;;;;;;;1.58;66.40;97731.56;10387171;28;20042;-75
2021/12/10 08:42:50;;;;;;;17.95;6.72;;;;;;;1.75;66.20;97731.38;10390668;28;20469;-74
2021/12/10 08:47:53;;;;;;;13.65;6.03;;;;;;;1.93;65.78;97727.75;10384093;28;20049;-75
2021/12/10 08:53:02;;;;;;;14.68;5.78;;;;;;;2.09;65.14;97726.69;10385169;28;20179;-75
2021/12/10 08:58:05;;;;;;;15.73;4.53;;;;;;;2.27;64.64;97729.94;10388127;28;20056;-75
2021/12/10 09:03:08;;;;;;;11.88;4.20;;;;;;;2.58;64.01;97727.09;10386632;28;20556;-76
2021/12/10 09:08:10;;;;;;;10.55;4.05;;;;;;;2.61;63.59;97732.06;10386916;28;20483;-75
2021/12/10 09:13:15;;;;;;;14.30;4.63;;;;;;;2.48;63.58;97731.16;10387673;28;20059;-75
2021/12/10 09:18:17;;;;;;;13.43;4.13;;;;;;;2.47;63.80;97721.78;10387466;28;20058;-76
2021/12/10 09:23:22;;;;;;;11.25;3.65;;;;;;;2.62;63.63;97714.84;10381591;28;20056;-75
2021/12/10 09:28:28;;;;;;;9.23;3.25;;;;;;;2.67;63.53;97707.63;10384041;28;20055;-74
2021/12/10 09:33:31;;;;;;;9.25;3.15;;;;;;;2.64;62.92;97702.69;10386248;28;20418;-74
2021/12/10 09:38:33;;;;;;;8.25;2.70;;;;;;;2.47;62.47;97688.25;10385792;28;20045;-71
2021/12/10 09:43:36;;;;;;;7.97;3.05;;;;;;;2.41;62.29;97683.47;10383932;28;20046;-73
2021/12/10 09:48:40;;;;;;;10.30;3.03;;;;;;;2.52;62.40;97664.75;10384904;28;20045;-74
2021/12/10 09:53:47;;;;;;;11.05;3.60;;;;;;;2.66;62.12;97655.19;10385720;28;20876;-74
2021/12/10 09:58:53;;;;;;;7.65;2.70;;;;;;;2.75;61.92;97643.44;10383830;28;20408;-71
2021/12/10 10:04:01;;;;;;;9.48;3.35;;;;;;;2.76;61.88;97627.88;10385275;28;20037;-73
2021/12/10 10:09:06;;;;;;;8.40;2.83;;;;;;;2.76;61.87;97617.56;10384378;28;20474;-74
2021/12/10 10:14:16;;;;;;;9.93;3.00;;;;;;;2.86;61.70;97617.78;10384765;28;20045;-71
2021/12/10 10:19:18;;;;;;;10.20;2.70;;;;;;;2.99;61.12;97608.28;10383193;28;20068;-74
2021/12/10 10:24:23;;;;;;;9.00;2.70;;;;;;;2.99;60.63;97605.72;10383237;28;20048;-74
2021/12/10 10:29:27;;;;;;;8.27;3.35;;;;;;;3.07;60.58;97593.94;10383227;28;20053;-71
2021/12/10 10:34:29;;;;;;;9.20;2.60;;;;;;;3.18;60.27;97592.41;10381816;28;20136;-74
2021/12/10 10:39:34;;;;;;;7.95;2.97;;;;;;;3.30;60.21;97596.75;10381484;28;20057;-73
2021/12/10 10:44:35;;;;;;;8.73;3.15;;;;;;;3.43;60.13;97598.41;10382366;28;20200;-72
2021/12/10 10:49:47;;;;;;;8.88;2.97;;;;;;;3.30;59.97;97589.00;10382944;28;20041;-72
2021/12/10 10:54:51;;;;;;;11.05;3.78;;;;;;;3.48;59.92;97601.50;10381424;28;20049;-72
2021/12/10 10:59:57;;;;;;;8.95;3.05;;;;;;;3.67;59.84;97594.16;10383014;28;20053;-72
2021/12/10 11:05:10;;;;;;;9.82;3.45;;;;;;;3.76;59.31;97587.53;10384631;28;20100;-71
2021/12/10 11:10:13;;;;;;;11.00;2.97;;;;;;;3.64;59.70;97590.97;10382058;28;20132;-72
2021/12/10 11:15:17;;;;;;;10.85;3.20;;;;;;;3.60;59.97;97589.53;10384286;28;20136;-72
2021/12/10 11:20:25;;;;;;;7.85;3.15;;;;;;;3.64;58.94;97581.44;10381921;28;20049;-72
2021/12/10 11:25:34;;;;;;;9.60;3.00;;;;;;;3.78;57.40;97585.66;10383482;28;20077;-72
2021/12/10 11:30:41;;;;;;;8.27;2.97;;;;;;;3.87;58.42;97572.09;10381185;28;20049;-72
2021/12/10 11:35:52;;;;;;;8.63;3.03;;;;;;;3.88;57.01;97578.13;10379290;28;20064;-71
2021/12/10 11:41:05;;;;;;;12.13;3.17;;;;;;;3.95;56.48;97576.72;10381603;28;20095;-72
2021/12/10 11:51:21;;;;;;;8.10;2.80;;;;;;;3.90;56.82;97592.59;10382355;28;20136;-73
2021/12/10 11:56:25;;;;;;;7.38;2.97;;;;;;;3.69;56.31;97591.44;10383052;28;20053;-72
2021/12/10 12:01:27;;;;;;;9.57;3.42;;;;;;;3.67;56.85;97581.22;10389282;28;20055;-72
2021/12/10 12:06:29;;;;;;;7.20;3.25;;;;;;;3.52;56.47;97568.53;10390113;28;20099;-72
2021/12/10 12:11:30;;;;;;;9.15;3.30;;;;;;;3.56;56.83;97569.97;10372816;28;20056;-72
2021/12/10 12:16:35;;;;;;;9.25;3.05;;;;;;;3.76;55.82;97556.50;10386071;28;20053;-73
2021/12/10 12:21:37;;;;;;;6.70;2.80;;;;;;;3.55;56.38;97564.00;10389033;28;20592;-72
2021/12/10 12:26:41;;;;;;;7.63;3.03;;;;;;;3.57;56.62;97572.47;10387734;28;20049;-72
2021/12/10 12:32:08;;;;;;;;;;;;;;;3.26;56.78;97575.47;10388514;28;20053;-72
2021/12/10 12:37:12;;;;;;;9.88;3.15;;;;;;;3.67;56.36;97577.81;10388646;28;19929;-71
2021/12/10 12:42:44;;;;;;;9.77;3.50;;;;;;;3.71;55.53;97566.31;10388812;28;20101;-72
2021/12/10 12:47:52;;;;;;;9.73;3.55;;;;;;;3.70;55.41;97567.28;10387169;28;20050;-72
2021/12/10 12:53:29;;;;;;;8.23;3.60;;;;;;;3.72;55.42;97563.63;10389307;28;20057;-71
2021/12/10 12:58:39;;;;;;;8.45;3.53;;;;;;;3.66;56.17;97556.28;10386407;28;20045;-74
2021/12/10 13:03:56;;;;;;;9.77;3.70;;;;;;;3.72;55.53;97568.00;10388076;28;20406;-74
2021/12/10 13:09:36;;;;;;;9.10;3.83;;;;;;;3.55;56.30;97565.75;10386795;28;20049;-72
2021/12/10 13:14:48;;;;;;;9.77;3.80;;;;;;;3.58;56.61;97568.94;10387732;28;20141;-72
2021/12/10 13:19:53;;;;;;;8.25;3.72;;;;;;;3.52;56.65;97565.94;10386849;28;20068;-72
2021/12/10 13:25:02;;;;;;;7.15;3.35;;;;;;;3.67;56.35;97563.13;10387534;28;20141;-72
2021/12/10 13:30:06;;;;;;;6.50;3.45;;;;;;;3.59;57.08;97562.84;10385490;28;20054;-72
2021/12/10 13:35:12;;;;;;;11.23;4.55;;;;;;;3.61;56.93;97573.91;10386761;28;20386;-72
2021/12/10 13:40:15;;;;;;;9.10;3.90;;;;;;;3.56;57.09;97575.13;10388368;28;20405;-72
2021/12/10 13:45:20;;;;;;;8.68;4.22;;;;;;;3.39;57.73;97580.63;10386599;28;20529;-72
2021/12/10 13:50:24;;;;;;;9.43;3.95;;;;;;;3.34;58.11;97573.19;10377360;28;20412;-72
2021/12/10 13:55:43;;;;;;;10.38;4.55;;;;;;;3.36;58.36;97584.25;10380158;28;20045;-72
2021/12/10 14:00:53;;;;;;;10.73;4.25;;;;;;;3.38;58.53;97587.56;10380660;28;20128;-72
2021/12/10 14:05:57;;;;;;;9.03;3.57;;;;;;;3.36;58.80;97596.34;10383840;28;20119;-73
2021/12/10 14:11:13;;;;;;;8.90;3.80;;;;;;;3.35;59.22;97605.03;10384702;28;20049;-73
2021/12/10 14:16:15;;;;;;;5.18;3.50;;;;;;;3.27;59.44;97617.63;10382667;28;20064;-73
2021/12/10 14:21:44;;;;;;;7.75;4.13;;;;;;;3.22;60.46;97619.69;10385555;28;20042;-76
2021/12/10 14:27:11;;;;;;;9.55;4.28;;;;;;;2.96;61.68;97630.00;10384861;28;20081;-77
2021/12/10 14:32:33;;;;;;;8.02;4.55;;;;;;;3.01;61.66;97638.25;10381411;28;20053;-74
2021/12/10 14:37:53;;;;;;;10.50;4.57;;;;;;;2.85;63.05;97642.75;10382639;28;20064;-77
2021/12/10 14:43:21;;;;;;;9.80;5.10;;;;;;;2.89;62.69;97648.53;10385008;28;20058;-77
2021/12/10 14:48:24;;;;;;;6.95;5.00;;;;;;;2.73;62.81;97663.38;10382865;28;20394;-78
2021/12/10 14:53:47;;;;;;;8.73;4.82;;;;;;;2.59;63.24;97674.59;10375852;28;20303;-77
2021/12/10 14:59:09;;;;;;;10.30;4.55;;;;;;;2.58;63.98;97680.66;10383325;28;20247;-74
2021/12/10 15:04:30;;;;;;;8.98;3.90;;;;;;;2.52;63.79;97688.78;10384106;28;20676;-77
2021/12/10 15:10:11;;;;;;;;;;;;;;;2.16;66.54;97689.31;10385493;28;20046;-73
2021/12/10 15:15:51;;;;;;;7.00;3.05;;;;;;;2.36;64.56;97695.81;10382936;28;19932;-77
2021/12/10 15:21:26;;;;;;;6.10;2.80;;;;;;;2.23;64.78;97707.84;10384469;28;20119;-77
2021/12/10 15:26:33;;;;;;;6.55;3.67;;;;;;;2.11;64.58;97706.81;10385871;28;20050;-77
2021/12/10 15:31:35;;;;;;;7.05;2.95;;;;;;;1.93;65.06;97717.44;10383590;28;20143;-76
2021/12/10 15:36:37;;;;;;;6.72;3.75;;;;;;;1.96;65.43;97717.25;10385455;28;20076;-76
2021/12/10 15:41:44;;;;;;;12.13;4.25;;;;;;;2.02;65.79;97717.69;10386107;28;20050;-76
2021/12/10 15:46:54;;;;;;;9.35;3.95;;;;;;;1.91;66.80;97732.16;10383469;28;20045;-75
2021/12/10 15:52:04;;;;;;;8.03;4.03;;;;;;;1.83;66.81;97739.50;10383935;28;20053;-76
2021/12/10 15:57:23;;;;;;;6.07;3.30;;;;;;;1.87;66.73;97754.69;10384917;28;20057;-76
2021/12/10 16:02:26;;;;;;;9.05;4.20;;;;;;;1.85;66.45;97756.53;10384044;28;20489;-76
2021/12/10 16:07:32;;;;;;;7.65;3.97;;;;;;;1.85;66.95;97768.56;10384582;28;20076;-73
2021/12/10 16:12:33;;;;;;;6.32;3.63;;;;;;;1.88;66.94;97771.00;10385281;28;20053;-76
2021/12/10 16:17:35;;;;;;;10.43;4.47;;;;;;;1.91;66.76;97781.13;10383943;28;20063;-75
2021/12/10 16:22:37;;;;;;;7.53;4.18;;;;;;;1.97;66.77;97783.34;10367436;28;20046;-74
2021/12/10 16:27:43;;;;;;;8.00;4.43;;;;;;;2.03;66.83;97776.06;10381610;28;20057;-74
2021/12/10 16:32:49;;;;;;;9.25;5.15;;;;;;;1.96;67.17;97787.66;10382976;28;20079;-74
2021/12/10 16:37:53;;;;;;;9.80;4.93;;;;;;;2.05;66.96;97788.88;10383099;28;20057;-73
2021/12/10 16:43:03;;;;;;;8.60;5.80;;;;;;;2.29;66.77;97797.72;10385757;28;20556;-74
2021/12/10 16:48:12;;;;;;;10.60;6.15;;;;;;;2.40;66.27;97807.41;10388212;28;20049;-73
2021/12/10 16:53:15;;;;;;;11.52;6.35;;;;;;;2.43;65.96;97823.50;10390514;28;20053;-73
2021/12/10 16:58:19;;;;;;;12.57;6.70;;;;;;;2.44;66.17;97832.09;10387503;28;20045;-74
2021/12/10 17:03:30;;;;;;;11.27;6.93;;;;;;;2.36;66.36;97840.25;10383566;28;21113;-73
2021/12/10 17:08:36;;;;;;;11.40;7.00;;;;;;;2.43;66.29;97840.72;10386123;28;20056;-74
2021/12/10 17:13:46;;;;;;;10.70;7.45;;;;;;;2.42;66.62;97855.38;10386268;28;20046;-74
2021/12/10 17:18:50;;;;;;;13.45;9.13;;;;;;;2.47;66.70;97858.53;10388190;28;20155;-73
2021/12/10 17:23:55;;;;;;;13.63;8.68;;;;;;;2.58;66.39;97868.19;10387588;28;20041;-74
2021/12/10 17:29:10;;;;;;;16.90;9.80;;;;;;;2.49;66.63;97877.31;10386570;28;20188;-73
2021/12/10 17:34:18;;;;;;;16.70;10.10;;;;;;;2.57;66.37;97885.44;10387555;28;20498;-73
2021/12/10 17:39:24;;;;;;;13.98;8.85;;;;;;;2.49;66.21;97902.28;10381116;28;20262;-73
2021/12/10 17:44:27;;;;;;;14.82;9.90;;;;;;;2.37;66.38;97903.84;10386045;28;20051;-75
2021/12/10 17:49:34;;;;;;;15.90;10.73;;;;;;;2.20;66.71;97909.16;10383376;28;20401;-74
2021/12/10 17:54:43;;;;;;;16.65;11.25;;;;;;;2.16;67.08;97923.97;10387429;28;20060;-74
2021/12/10 17:59:45;;;;;;;21.15;13.38;;;;;;;2.15;67.10;97940.34;10386988;28;20045;-75
2021/12/10 18:04:50;;;;;;;23.55;13.73;;;;;;;2.14;67.11;97940.44;10385781;28;20056;-73
2021/12/10 18:09:56;;;;;;;16.60;11.07;;;;;;;2.05;67.39;97954.69;10386731;28;20064;-74
2021/12/10 18:15:10;;;;;;;20.17;12.88;;;;;;;2.19;67.42;97961.66;10385134;28;20049;-75
2021/12/10 18:20:20;;;;;;;24.60;13.63;;;;;;;2.35;66.92;97965.00;10385349;28;20064;-75
2021/12/10 18:25:27;;;;;;;23.27;14.57;;;;;;;2.35;66.86;97972.75;10398727;28;20047;-74
2021/12/10 18:30:31;;;;;;;20.27;14.68;;;;;;;2.28;66.93;97974.00;10384582;28;20057;-74
2021/12/10 18:35:33;;;;;;;23.98;15.02;;;;;;;2.41;66.93;97971.56;10383421;28;20461;-74
2021/12/10 18:40:44;;;;;;;24.77;15.13;;;;;;;2.45;66.80;97986.78;10384906;28;20076;-73
2021/12/10 18:45:50;;;;;;;26.58;16.70;;;;;;;2.54;66.60;97988.81;10384513;28;20051;-74
2021/12/10 18:50:57;;;;;;;23.65;16.05;;;;;;;2.62;66.47;97999.50;10384142;28;20057;-74
2021/12/10 18:56:06;;;;;;;26.55;17.27;;;;;;;2.69;66.66;98007.72;10384330;28;20769;-74
2021/12/10 19:01:14;;;;;;;43.28;24.05;;;;;;;2.74;66.53;98024.63;10384770;28;20056;-75
2021/12/10 19:06:19;;;;;;;28.90;19.48;;;;;;;2.70;66.63;98030.06;10381665;28;20051;-72
2021/12/10 19:11:25;;;;;;;36.60;24.08;;;;;;;2.71;66.58;98037.69;10377753;28;20140;-76
2021/12/10 19:16:32;;;;;;;29.70;19.25;;;;;;;2.76;66.43;98047.75;10373563;28;20574;-76
2021/12/10 19:21:42;;;;;;;29.70;19.70;;;;;;;2.67;66.27;98054.28;10382652;28;20186;-76
2021/12/10 19:26:59;;;;;;;37.40;21.35;;;;;;;2.55;66.85;98067.88;10382365;28;20049;-76
2021/12/10 19:32:09;;;;;;;30.20;19.48;;;;;;;2.58;66.83;98075.44;10381273;28;20289;-77
2021/12/10 19:37:21;;;;;;;35.42;21.42;;;;;;;2.62;66.65;98087.25;10382480;28;20048;-75
2021/12/10 19:42:30;;;;;;;43.03;26.23;;;;;;;2.60;66.69;98101.19;10383428;28;20054;-75
2021/12/10 19:47:36;;;;;;;52.03;30.40;;;;;;;2.62;66.63;98112.25;10383319;28;20052;-75
2021/12/10 19:52:41;;;;;;;40.42;27.55;;;;;;;2.57;66.61;98117.66;10383633;28;20397;-70
2021/12/10 19:57:46;;;;;;;48.53;29.48;;;;;;;2.59;66.76;98133.88;10380034;28;20755;-72
2021/12/10 20:02:55;;;;;;;46.05;27.13;;;;;;;2.47;66.82;98137.16;10381395;28;20448;-72
2021/12/10 20:08:07;;;;;;;49.58;27.88;;;;;;;2.36;67.12;98143.84;10383065;28;20049;-72
2021/12/10 20:13:15;;;;;;;43.67;25.88;;;;;;;2.28;67.42;98151.97;10382904;28;20120;-72
2021/12/10 20:18:24;;;;;;;59.63;32.25;;;;;;;2.12;67.15;98159.72;10387628;28;20057;-72
2021/12/10 20:23:34;;;;;;;45.80;27.27;;;;;;;2.08;67.36;98175.41;10391629;28;20049;-71
2021/12/10 20:28:40;;;;;;;36.75;25.80;;;;;;;2.01;67.23;98185.22;10386128;28;21068;-72
2021/12/10 20:33:55;;;;;;;54.58;31.27;;;;;;;1.82;67.44;98189.69;10387484;28;20065;-73
2021/12/10 20:39:14;;;;;;;43.20;28.25;;;;;;;1.76;67.74;98200.31;10390556;28;20049;-73
2021/12/10 20:44:20;;;;;;;;;;;;;;;1.60;68.45;98221.78;10389853;28;20115;-72
2021/12/10 20:49:33;;;;;;;45.75;25.50;;;;;;;1.78;67.75;98234.59;10389968;28;20308;-72
2021/12/10 20:54:41;;;;;;;44.55;27.90;;;;;;;1.87;67.79;98244.41;10388970;28;20063;-72
2021/12/10 20:59:50;;;;;;;66.35;36.10;;;;;;;1.99;67.73;98263.59;10389981;28;20096;-72
2021/12/10 21:04:58;;;;;;;73.05;37.28;;;;;;;2.12;67.47;98265.44;10390737;28;20076;-72
2021/12/10 21:10:09;;;;;;;79.75;38.47;;;;;;;2.16;67.40;98279.00;10389921;28;20343;-72
2021/12/10 21:15:29;;;;;;;94.68;35.47;;;;;;;2.21;67.59;98295.06;10389424;28;20420;-72
2021/12/10 21:20:42;;;;;;;65.47;30.63;;;;;;;2.31;67.48;98291.09;10388888;28;20054;-72
2021/12/10 21:26:08;;;;;;;62.33;27.67;;;;;;;2.25;67.42;98299.16;10388705;28;20107;-72
2021/12/10 21:31:15;;;;;;;62.60;28.70;;;;;;;2.32;67.42;98326.28;10388402;28;20088;-72
2021/12/10 21:37:55;;;;;;;54.08;26.35;;;;;;;2.38;67.35;98327.75;10388672;28;20061;-72
2021/12/10 21:42:17;;;;;;;41.13;23.67;;;;;;;2.36;67.63;98345.84;10388311;28;20841;-72
2021/12/10 21:47:24;;;;;;;35.70;22.25;;;;;;;2.44;67.27;98355.78;10387600;28;20638;-72
2021/12/10 21:52:33;;;;;;;45.92;23.98;;;;;;;2.48;67.44;98363.28;10387318;28;20128;-72
2021/12/10 21:57:39;;;;;;;50.70;28.67;;;;;;;2.52;67.15;98382.03;10387755;28;20049;-71
2021/12/10 22:02:44;;;;;;;56.50;31.17;;;;;;;2.55;67.07;98382.69;10387621;28;20041;-71
2021/12/10 22:07:53;;;;;;;39.88;25.70;;;;;;;2.53;67.11;98383.69;10387001;28;20053;-72
2021/12/10 22:13:14;;;;;;;49.05;26.65;;;;;;;2.48;67.11;98394.22;10386335;28;20041;-72
2021/12/10 22:18:31;;;;;;;44.33;23.90;;;;;;;2.43;67.13;98409.13;10382666;28;20057;-71
2021/12/10 22:23:38;;;;;;;40.50;23.92;;;;;;;2.41;67.47;98416.13;10387522;28;20300;-71
2021/12/10 22:28:56;;;;;;;33.05;22.55;;;;;;;2.43;67.13;98434.09;10386850;28;20401;-71
2021/12/10 22:34:02;;;;;;;45.60;24.50;;;;;;;2.50;67.19;98449.16;10385763;28;20489;-72
2021/12/10 22:39:15;;;;;;;44.63;25.60;;;;;;;2.51;67.09;98457.75;10385309;28;20497;-72
2021/12/10 22:44:24;;;;;;;49.92;26.63;;;;;;;2.55;67.09;98470.44;10384589;28;20061;-71
2021/12/10 22:49:31;;;;;;;36.10;22.52;;;;;;;2.57;66.90;98494.41;10386032;28;20049;-71
2021/12/10 22:54:37;;;;;;;47.22;27.05;;;;;;;2.59;67.04;98508.06;10383233;28;20057;-72
2021/12/10 22:59:43;;;;;;;38.88;23.75;;;;;;;2.57;67.14;98524.53;10386566;28;20069;-72
2021/12/10 23:04:54;;;;;;;56.63;28.48;;;;;;;2.63;66.98;98526.81;10385672;28;20061;-71
2021/12/10 23:09:59;;;;;;;54.17;28.27;;;;;;;2.60;66.81;98532.16;10384841;28;20049;-72
2021/12/10 23:15:12;;;;;;;53.83;27.58;;;;;;;2.52;67.34;98548.00;10384476;28;20053;-71
2021/12/10 23:20:23;;;;;;;48.05;26.00;;;;;;;2.48;67.52;98561.94;10385235;28;20081;-72
2021/12/10 23:25:29;;;;;;;42.35;24.38;;;;;;;2.57;67.40;98571.84;10384706;28;20072;-71
2021/12/10 23:30:45;;;;;;;40.72;24.25;;;;;;;2.66;67.07;98580.88;10384665;28;20052;-72
2021/12/10 23:35:57;;;;;;;60.75;28.42;;;;;;;2.65;67.24;98599.84;10383947;28;20049;-72
2021/12/10 23:41:08;;;;;;;37.40;23.17;;;;;;;2.65;67.25;98611.00;10384069;28;20223;-72
2021/12/10 23:46:32;;;;;;;47.35;25.92;;;;;;;2.61;67.04;98618.97;10384947;28;20056;-71
2021/12/10 23:51:38;;;;;;;53.85;27.02;;;;;;;2.61;67.32;98627.56;10384609;28;20045;-71
2021/12/10 23:56:40;;;;;;;38.00;23.70;;;;;;;2.54;67.35;98626.16;10393063;28;20409;-71
